createdAt,value
2019-03-30T00:02:08.809Z,22.87
2019-03-30T00:04:39.841Z,21.33
2019-03-30T00:07:10.452Z,19.73
2019-03-30T00:09:40.837Z,21.47
2019-03-30T00:12:11.418Z,22.03
2019-03-30T00:14:41.774Z,17.20
2019-03-30T00:17:12.387Z,19.33
2019-03-30T00:19:42.797Z,17.50
2019-03-30T00:22:13.141Z,18.83
2019-03-30T00:24:46.543Z,19.97
2019-03-30T00:27:17.119Z,20.73
2019-03-30T00:29:48.265Z,20.60
2019-03-30T00:32:18.718Z,20.43
2019-03-30T00:34:49.050Z,18.70
2019-03-30T00:37:24.533Z,21.07
2019-03-30T00:39:54.867Z,20.87
2019-03-30T00:42:25.225Z,19.17
2019-03-30T00:44:55.658Z,19.90
2019-03-30T00:47:25.922Z,19.67
2019-03-30T00:49:56.379Z,19.23
2019-03-30T00:52:26.729Z,19.97
2019-03-30T00:54:57.075Z,18.60
2019-03-30T00:57:27.896Z,20.37
2019-03-30T00:59:58.724Z,21.00
2019-03-30T01:02:31.158Z,20.93
2019-03-30T01:07:45.698Z,20.40
2019-03-30T01:10:20.110Z,20.30
2019-03-30T01:12:50.440Z,20.00
2019-03-30T01:15:20.788Z,21.27
2019-03-30T01:17:51.120Z,21.47
2019-03-30T01:20:22.469Z,19.13
2019-03-30T01:22:52.840Z,20.83
2019-03-30T01:25:23.185Z,18.90
2019-03-30T01:27:53.509Z,21.63
2019-03-30T01:30:23.882Z,17.67
2019-03-30T01:32:54.175Z,18.03
2019-03-30T01:35:30.667Z,19.27
2019-03-30T01:38:00.992Z,17.63
2019-03-30T01:40:31.314Z,17.97
2019-03-30T01:43:01.676Z,17.77
2019-03-30T01:45:32.000Z,18.97
2019-03-30T01:48:02.351Z,19.37
2019-03-30T01:50:32.961Z,17.83
2019-03-30T01:53:04.049Z,17.77
2019-03-30T01:55:40.528Z,17.97
2019-03-30T01:58:13.926Z,16.83
2019-03-30T02:00:48.354Z,17.57
2019-03-30T02:03:19.492Z,16.97
2019-03-30T02:06:11.256Z,18.13
2019-03-30T02:08:42.348Z,18.93
2019-03-30T02:11:18.847Z,17.13
2019-03-30T02:13:49.168Z,16.90
2019-03-30T02:16:19.491Z,15.67
2019-03-30T02:18:49.833Z,16.73
2019-03-30T02:21:20.161Z,15.67
2019-03-30T02:23:50.479Z,16.80
2019-03-30T02:26:20.834Z,16.83
2019-03-30T02:28:51.924Z,15.90
2019-03-30T02:31:43.678Z,16.30
2019-03-30T02:34:14.009Z,16.27
2019-03-30T02:36:44.344Z,17.47
2019-03-30T02:39:15.457Z,15.50
2019-03-30T02:41:46.795Z,14.53
2019-03-30T02:44:38.555Z,15.43
2019-03-30T02:47:08.871Z,16.47
2019-03-30T02:49:39.289Z,16.37
2019-03-30T02:52:09.651Z,16.63
2019-03-30T02:54:39.984Z,17.80
2019-03-30T02:57:11.059Z,17.23
2019-03-30T02:59:48.733Z,16.30
2019-03-30T03:02:19.053Z,17.40
2019-03-30T03:04:50.364Z,16.60
2019-03-30T03:07:20.715Z,17.00
2019-03-30T03:09:52.837Z,15.13
2019-03-30T03:12:23.159Z,14.30
2019-03-30T03:14:53.523Z,15.93
2019-03-30T03:17:24.615Z,15.40
2019-03-30T03:19:56.980Z,16.37
2019-03-30T03:22:27.320Z,14.87
2019-03-30T03:25:05.003Z,15.97
2019-03-30T03:27:35.360Z,14.27
2019-03-30T03:30:05.706Z,15.73
2019-03-30T03:32:36.025Z,14.37
2019-03-30T03:35:24.694Z,16.20
2019-03-30T03:37:56.050Z,14.70
2019-03-30T03:40:26.373Z,14.87
2019-03-30T03:42:57.491Z,15.53
2019-03-30T03:45:27.818Z,14.10
2019-03-30T03:47:58.197Z,13.77
2019-03-30T03:50:36.100Z,15.03
2019-03-30T03:53:06.420Z,14.33
2019-03-30T03:55:37.147Z,14.63
2019-03-30T03:58:07.497Z,15.23
2019-03-30T04:00:37.819Z,14.27
2019-03-30T04:03:08.832Z,14.80
2019-03-30T04:05:39.169Z,14.13
2019-03-30T04:08:10.491Z,14.47
2019-03-30T04:10:40.822Z,15.27
2019-03-30T04:13:11.105Z,14.20
2019-03-30T04:15:41.427Z,16.83
2019-03-30T04:18:14.072Z,15.83
2019-03-30T04:20:44.420Z,14.37
2019-03-30T04:23:14.739Z,14.30
2019-03-30T04:25:46.117Z,15.43
2019-03-30T04:28:16.786Z,14.40
2019-03-30T04:30:47.882Z,15.93
2019-03-30T04:33:38.694Z,15.40
2019-03-30T04:36:09.748Z,12.50
2019-03-30T04:38:40.091Z,13.93
2019-03-30T04:41:10.516Z,14.70
2019-03-30T04:43:40.808Z,14.03
2019-03-30T04:46:11.134Z,15.73
2019-03-30T04:48:46.623Z,14.00
2019-03-30T04:51:16.945Z,13.13
2019-03-30T04:53:48.048Z,14.73
2019-03-30T04:56:18.465Z,14.47
2019-03-30T04:58:48.735Z,13.83
2019-03-30T05:01:19.049Z,15.60
2019-03-30T05:03:49.503Z,14.27
2019-03-30T05:06:21.828Z,14.93
2019-03-30T05:08:52.153Z,15.13
2019-03-30T05:11:23.358Z,12.90
2019-03-30T05:13:53.738Z,12.70
2019-03-30T05:16:24.071Z,14.17
2019-03-30T05:21:38.346Z,14.80
2019-03-30T05:24:08.711Z,13.20
2019-03-30T05:26:39.028Z,14.23
2019-03-30T05:29:09.348Z,12.97
2019-03-30T05:31:39.692Z,13.37
2019-03-30T05:34:10.038Z,14.80
2019-03-30T05:36:40.390Z,12.53
2019-03-30T05:39:10.761Z,11.47
2019-03-30T05:41:41.087Z,11.53
2019-03-30T05:44:11.445Z,13.47
2019-03-30T05:46:43.840Z,12.93
2019-03-30T05:49:14.169Z,13.93
2019-03-30T05:51:44.489Z,13.73
2019-03-30T05:54:14.830Z,13.03
2019-03-30T05:56:45.917Z,13.57
2019-03-30T05:59:16.242Z,13.13
2019-03-30T06:01:46.581Z,12.80
2019-03-30T06:04:16.903Z,13.17
2019-03-30T06:07:06.632Z,13.73
2019-03-30T06:09:37.717Z,13.90
2019-03-30T06:12:08.040Z,15.07
2019-03-30T06:14:39.567Z,14.10
2019-03-30T06:17:09.886Z,12.87
2019-03-30T06:19:40.970Z,15.63
2019-03-30T06:22:15.413Z,11.57
2019-03-30T06:24:45.731Z,13.00
2019-03-30T06:27:16.054Z,12.97
2019-03-30T06:29:46.414Z,14.03
2019-03-30T06:32:16.734Z,11.50
2019-03-30T06:34:47.057Z,13.33
2019-03-30T06:37:17.410Z,13.57
2019-03-30T06:39:48.496Z,12.83
2019-03-30T06:42:40.272Z,12.90
2019-03-30T06:45:12.371Z,15.23
2019-03-30T06:47:44.737Z,11.30
2019-03-30T06:50:15.079Z,14.77
2019-03-30T06:53:04.508Z,13.53
2019-03-30T06:55:35.624Z,12.83
2019-03-30T06:58:05.943Z,12.97
2019-03-30T07:00:37.288Z,11.87
2019-03-30T07:03:07.632Z,12.47
2019-03-30T07:05:40.607Z,11.93
2019-03-30T07:08:13.890Z,13.50
2019-03-30T07:10:46.798Z,12.70
2019-03-30T07:13:17.106Z,12.77
2019-03-30T07:15:47.791Z,14.00
2019-03-30T07:18:18.113Z,10.63
2019-03-30T07:20:49.202Z,12.43
2019-03-30T07:23:38.916Z,12.00
2019-03-30T07:26:10.008Z,12.67
2019-03-30T07:28:42.380Z,11.90
2019-03-30T07:31:14.777Z,11.60
2019-03-30T07:33:45.105Z,11.00
2019-03-30T07:36:15.434Z,10.67
2019-03-30T07:38:45.784Z,13.30
2019-03-30T07:41:16.873Z,12.27
2019-03-30T07:43:47.196Z,11.73
2019-03-30T07:46:19.901Z,13.13
2019-03-30T07:48:50.937Z,11.37
2019-03-30T07:51:40.662Z,11.90
2019-03-30T07:54:11.743Z,12.37
2019-03-30T07:56:45.136Z,9.87
2019-03-30T07:59:15.481Z,9.63
2019-03-30T08:01:47.851Z,12.20
2019-03-30T08:04:18.181Z,11.00
2019-03-30T08:06:48.538Z,12.43
2019-03-30T08:09:18.868Z,10.57
2019-03-30T08:11:49.964Z,11.97
2019-03-30T08:14:26.456Z,10.67
2019-03-30T08:16:56.780Z,12.63
2019-03-30T08:19:28.335Z,13.00
2019-03-30T08:21:58.685Z,12.30
2019-03-30T08:24:29.019Z,10.73
2019-03-30T08:27:00.108Z,10.97
2019-03-30T08:29:35.565Z,12.43
2019-03-30T08:32:05.897Z,10.63
2019-03-30T08:34:36.215Z,11.00
2019-03-30T08:37:06.575Z,8.80
2019-03-30T08:39:36.941Z,9.87
2019-03-30T08:42:07.251Z,9.43
2019-03-30T08:44:37.612Z,8.03
2019-03-30T08:47:08.251Z,11.73
2019-03-30T08:49:38.631Z,10.60
2019-03-30T08:52:09.229Z,9.17
2019-03-30T08:54:39.546Z,9.73
2019-03-30T08:57:09.892Z,8.30
2019-03-30T08:59:41.010Z,9.20
2019-03-30T09:02:11.338Z,9.50
2019-03-30T09:04:41.661Z,8.40
2019-03-30T09:07:15.078Z,9.50
2019-03-30T09:09:45.406Z,13.03
2019-03-30T09:12:17.777Z,9.10
2019-03-30T09:14:48.136Z,10.23
2019-03-30T09:17:18.467Z,7.27
2019-03-30T09:19:48.788Z,9.20
2019-03-30T09:22:20.261Z,12.17
2019-03-30T09:24:53.649Z,7.03
2019-03-30T09:27:23.965Z,8.27
2019-03-30T09:29:54.343Z,7.87
2019-03-30T09:35:18.081Z,6.80
2019-03-30T09:37:48.411Z,8.33
2019-03-30T09:40:18.726Z,8.33
2019-03-30T09:42:49.073Z,6.50
2019-03-30T09:45:19.397Z,7.13
2019-03-30T09:47:51.758Z,7.70
2019-03-30T09:50:22.111Z,6.17
2019-03-30T09:53:12.563Z,5.63
2019-03-30T09:55:44.705Z,9.13
2019-03-30T09:58:15.027Z,5.33
2019-03-30T10:00:46.364Z,7.50
2019-03-30T10:03:17.002Z,6.10
2019-03-30T10:05:47.327Z,6.87
2019-03-30T10:08:17.649Z,8.37
2019-03-30T10:10:47.998Z,5.53
2019-03-30T10:13:18.587Z,6.10
2019-03-30T10:15:53.035Z,7.77
2019-03-30T10:18:23.350Z,4.30
2019-03-30T10:20:53.670Z,7.37
2019-03-30T10:23:24.004Z,6.83
2019-03-30T10:25:54.323Z,8.57
2019-03-30T10:28:24.643Z,6.37
2019-03-30T10:30:54.974Z,6.53
2019-03-30T10:33:27.336Z,5.50
2019-03-30T10:35:57.665Z,5.30
2019-03-30T10:38:29.032Z,6.07
2019-03-30T10:40:59.352Z,5.83
2019-03-30T10:43:29.672Z,5.20
2019-03-30T10:46:00.018Z,6.60
2019-03-30T10:48:31.359Z,7.33
2019-03-30T10:51:01.676Z,5.93
2019-03-30T10:53:32.010Z,7.77
2019-03-30T10:56:02.332Z,6.40
2019-03-30T10:58:32.656Z,8.33
2019-03-30T11:01:02.981Z,7.37
2019-03-30T11:03:33.319Z,6.43
2019-03-30T11:06:03.638Z,8.17
2019-03-30T11:08:34.357Z,5.70
2019-03-30T11:11:04.690Z,5.20
2019-03-30T11:13:36.030Z,5.83
2019-03-30T11:16:06.361Z,6.57
2019-03-30T11:18:36.678Z,6.10
2019-03-30T11:21:07.001Z,6.53
2019-03-30T11:23:38.372Z,6.93
2019-03-30T11:26:08.704Z,6.00
2019-03-30T11:28:39.791Z,6.00
2019-03-30T11:31:11.171Z,6.40
2019-03-30T11:33:41.489Z,8.77
2019-03-30T11:36:32.237Z,6.67
2019-03-30T11:39:03.322Z,7.40
2019-03-30T11:41:33.645Z,5.83
2019-03-30T11:44:07.061Z,7.27
2019-03-30T11:46:37.712Z,6.13
2019-03-30T11:49:08.032Z,5.20
2019-03-30T11:51:38.376Z,6.77
2019-03-30T11:54:08.693Z,7.30
2019-03-30T11:56:39.012Z,5.93
2019-03-30T11:59:09.359Z,6.37
2019-03-30T12:01:41.466Z,4.83
2019-03-30T12:04:12.162Z,6.57
2019-03-30T12:06:43.284Z,9.03
2019-03-30T12:09:14.626Z,5.80
2019-03-30T12:11:44.949Z,6.00
2019-03-30T12:14:15.299Z,5.90
2019-03-30T12:16:46.388Z,7.33
2019-03-30T12:19:20.807Z,6.17
2019-03-30T12:21:51.156Z,6.13
2019-03-30T12:24:21.475Z,7.47
2019-03-30T12:26:51.799Z,8.13
2019-03-30T12:29:24.211Z,4.50
2019-03-30T12:31:54.528Z,5.07
2019-03-30T12:34:24.858Z,4.30
2019-03-30T12:36:55.939Z,5.03
2019-03-30T12:39:28.334Z,6.20
2019-03-30T12:42:20.158Z,5.50
2019-03-30T12:44:51.202Z,7.70
2019-03-30T12:47:21.518Z,6.37
2019-03-30T12:49:53.913Z,6.40
2019-03-30T12:52:26.506Z,7.50
2019-03-30T12:55:16.012Z,10.73
2019-03-30T12:57:46.333Z,7.17
2019-03-30T13:00:17.413Z,6.27
2019-03-30T13:02:48.784Z,5.20
2019-03-30T13:05:19.104Z,5.70
2019-03-30T13:08:08.820Z,5.40
2019-03-30T13:10:39.147Z,5.03
2019-03-30T13:13:10.240Z,6.37
2019-03-30T13:15:40.585Z,4.87
2019-03-30T13:18:10.901Z,6.60
2019-03-30T13:20:41.226Z,4.97
2019-03-30T13:23:32.991Z,5.80
2019-03-30T13:26:04.293Z,5.27
2019-03-30T13:28:33.633Z,5.63
2019-03-30T13:31:04.003Z,5.13
2019-03-30T13:33:34.317Z,7.90
2019-03-30T13:36:04.656Z,7.87
2019-03-30T13:38:35.751Z,5.97
2019-03-30T13:43:47.784Z,6.07
2019-03-30T13:46:18.870Z,3.77
2019-03-30T13:48:49.183Z,5.50
2019-03-30T13:51:20.374Z,5.43
2019-03-30T13:53:50.697Z,4.57
2019-03-30T13:56:21.016Z,7.53
2019-03-30T13:58:51.363Z,5.63
2019-03-30T14:01:21.680Z,4.30
2019-03-30T14:03:51.997Z,5.10
2019-03-30T14:06:23.364Z,5.20
2019-03-30T14:08:53.685Z,4.30
2019-03-30T14:11:24.004Z,4.63
2019-03-30T14:13:54.365Z,3.90
2019-03-30T14:16:25.439Z,5.40
2019-03-30T14:19:01.923Z,7.20
2019-03-30T14:21:33.268Z,4.60
2019-03-30T14:24:26.808Z,4.20
2019-03-30T14:26:57.123Z,4.23
2019-03-30T14:29:27.443Z,3.87
2019-03-30T14:31:58.543Z,4.57
2019-03-30T14:34:28.859Z,4.13
2019-03-30T14:37:05.332Z,5.23
2019-03-30T14:39:35.646Z,5.57
2019-03-30T14:42:05.979Z,5.83
2019-03-30T14:44:36.301Z,5.47
2019-03-30T14:47:12.749Z,5.40
2019-03-30T14:49:43.091Z,5.53
2019-03-30T14:52:21.573Z,4.03
2019-03-30T14:54:53.246Z,4.77
2019-03-30T14:57:29.570Z,6.10
2019-03-30T14:59:59.964Z,5.00
2019-03-30T15:02:30.226Z,4.60
2019-03-30T15:05:01.118Z,4.97
2019-03-30T15:07:30.896Z,5.33
2019-03-30T15:10:01.993Z,4.97
2019-03-30T15:12:32.298Z,3.93
2019-03-30T15:15:22.016Z,4.77
2019-03-30T15:17:52.361Z,4.73
2019-03-30T15:20:22.650Z,4.00
2019-03-30T15:22:52.997Z,4.30
2019-03-30T15:25:23.316Z,4.17
2019-03-30T15:27:53.632Z,4.63
2019-03-30T15:30:23.985Z,3.60
2019-03-30T15:32:56.088Z,5.20
2019-03-30T15:35:28.482Z,5.03
2019-03-30T15:37:58.805Z,6.17
2019-03-30T15:40:29.124Z,7.70
2019-03-30T15:43:18.844Z,6.63
2019-03-30T15:45:49.940Z,3.67
2019-03-30T15:48:24.368Z,5.07
2019-03-30T15:50:55.722Z,4.27
2019-03-30T15:53:26.037Z,3.33
2019-03-30T15:56:00.480Z,4.70
2019-03-30T15:58:30.795Z,4.80
2019-03-30T16:01:01.117Z,2.97
2019-03-30T16:03:34.077Z,5.43
2019-03-30T16:06:04.393Z,3.80
2019-03-30T16:08:34.710Z,4.33
2019-03-30T16:11:05.057Z,3.40
2019-03-30T16:13:35.386Z,3.63
2019-03-30T16:16:05.713Z,3.90
2019-03-30T16:18:40.146Z,3.87
2019-03-30T16:21:11.237Z,3.83
2019-03-30T16:23:42.322Z,8.80
2019-03-30T16:26:14.708Z,5.20
2019-03-30T16:29:06.448Z,3.20
2019-03-30T16:31:38.724Z,5.43
2019-03-30T16:34:09.045Z,4.23
2019-03-30T16:36:39.363Z,5.47
2019-03-30T16:39:09.715Z,2.97
2019-03-30T16:41:40.030Z,5.17
2019-03-30T16:44:21.462Z,6.20
2019-03-30T16:46:51.783Z,3.97
2019-03-30T16:49:22.103Z,3.73
2019-03-30T16:51:52.448Z,3.77
2019-03-30T16:54:23.787Z,7.23
2019-03-30T16:56:54.106Z,3.33
2019-03-30T16:59:24.736Z,2.80
2019-03-30T17:01:55.053Z,2.80
2019-03-30T17:04:31.984Z,4.67
2019-03-30T17:07:03.324Z,3.40
2019-03-30T17:09:33.642Z,2.90
2019-03-30T17:12:10.129Z,3.60
2019-03-30T17:14:42.376Z,3.10
2019-03-30T17:17:12.699Z,6.73
2019-03-30T17:19:43.037Z,5.50
2019-03-30T17:22:15.403Z,4.30
2019-03-30T17:24:46.739Z,2.83
2019-03-30T17:27:17.106Z,2.90
2019-03-30T17:29:47.427Z,10.23
2019-03-30T17:32:17.989Z,9.60
2019-03-30T17:34:49.354Z,7.33
2019-03-30T17:37:19.670Z,3.23
2019-03-30T17:39:50.752Z,4.10
2019-03-30T17:42:21.109Z,3.27
2019-03-30T17:44:51.420Z,3.37
2019-03-30T17:47:21.733Z,3.67
2019-03-30T17:49:52.082Z,3.37
2019-03-30T17:55:04.119Z,4.20
2019-03-30T17:57:34.422Z,2.57
2019-03-30T18:00:11.039Z,2.67
2019-03-30T18:02:41.352Z,3.10
2019-03-30T18:05:12.434Z,3.20
2019-03-30T18:07:42.798Z,3.90
2019-03-30T18:10:13.121Z,3.03
2019-03-30T18:12:43.438Z,3.43
2019-03-30T18:15:13.783Z,5.57
2019-03-30T18:17:44.863Z,4.00
2019-03-30T18:20:15.188Z,7.13
2019-03-30T18:22:45.536Z,5.40
2019-03-30T18:25:19.939Z,3.43
2019-03-30T18:28:04.451Z,3.30
2019-03-30T18:30:34.766Z,3.20
2019-03-30T18:33:05.094Z,3.10
2019-03-30T18:35:35.675Z,3.30
2019-03-30T18:38:05.988Z,4.17
2019-03-30T18:40:36.303Z,7.50
2019-03-30T18:43:07.410Z,3.97
2019-03-30T18:45:37.726Z,3.13
2019-03-30T18:48:15.589Z,2.93
2019-03-30T18:50:45.906Z,2.80
2019-03-30T18:53:18.287Z,2.93
2019-03-30T18:55:54.086Z,3.93
2019-03-30T18:58:24.403Z,4.87
2019-03-30T19:00:54.721Z,4.60
2019-03-30T19:03:31.698Z,5.33
2019-03-30T19:06:01.825Z,5.80
2019-03-30T19:08:34.601Z,6.67
2019-03-30T19:11:02.488Z,5.87
2019-03-30T19:13:32.814Z,4.20
2019-03-30T19:16:07.207Z,4.43
2019-03-30T19:18:37.560Z,3.60
2019-03-30T19:21:07.877Z,5.17
2019-03-30T19:23:38.202Z,4.43
2019-03-30T19:26:11.626Z,3.93
2019-03-30T19:28:55.325Z,4.83
2019-03-30T19:31:12.266Z,5.33
2019-03-30T19:33:43.419Z,3.93
2019-03-30T19:36:13.737Z,5.57
2019-03-30T19:38:44.056Z,5.67
2019-03-30T19:41:14.393Z,4.37
2019-03-30T19:43:44.717Z,14.83
2019-03-30T19:46:15.048Z,14.13
2019-03-30T19:48:45.397Z,8.63
2019-03-30T19:51:15.715Z,5.90
2019-03-30T19:53:48.082Z,7.37
2019-03-30T19:56:19.194Z,4.30
2019-03-30T19:58:49.508Z,8.10
2019-03-30T20:01:19.831Z,5.23
2019-03-30T20:03:52.220Z,5.63
2019-03-30T20:06:22.530Z,6.20
2019-03-30T20:09:11.216Z,5.77
2019-03-30T20:11:41.528Z,6.77
2019-03-30T20:14:11.852Z,6.23
2019-03-30T20:16:42.513Z,6.53
2019-03-30T20:19:13.353Z,8.93
2019-03-30T20:21:43.894Z,10.27
2019-03-30T20:24:14.244Z,7.13
2019-03-30T20:26:44.566Z,5.60
2019-03-30T20:29:25.247Z,8.20
2019-03-30T20:31:45.230Z,6.37
2019-03-30T20:34:34.929Z,4.50
2019-03-30T20:37:05.281Z,6.67
2019-03-30T20:39:35.598Z,7.33
2019-03-30T20:42:05.916Z,6.17
2019-03-30T20:44:36.264Z,6.00
2019-03-30T20:47:07.343Z,7.23
2019-03-30T20:49:37.657Z,6.27
2019-03-30T20:52:08.017Z,7.30
2019-03-30T20:54:39.360Z,7.37
2019-03-30T20:57:10.706Z,12.43
2019-03-30T20:59:48.378Z,9.40
2019-03-30T21:02:18.691Z,16.70
2019-03-30T21:04:49.015Z,11.67
2019-03-30T21:07:20.137Z,8.73
2019-03-30T21:09:51.227Z,8.20
2019-03-30T21:12:21.543Z,7.80
2019-03-30T21:14:51.896Z,6.47
2019-03-30T21:17:43.974Z,8.50
2019-03-30T21:20:15.090Z,8.97
2019-03-30T21:22:45.414Z,8.20
2019-03-30T21:25:15.730Z,10.33
2019-03-30T21:27:46.084Z,9.97
2019-03-30T21:30:16.405Z,7.67
2019-03-30T21:32:47.740Z,8.23
2019-03-30T21:35:18.094Z,7.97
2019-03-30T21:37:49.186Z,6.73
2019-03-30T21:40:25.660Z,8.03
2019-03-30T21:42:55.989Z,7.43
2019-03-30T21:45:31.413Z,9.20
2019-03-30T21:48:03.817Z,9.00
2019-03-30T21:50:34.138Z,8.60
2019-03-30T21:53:05.477Z,8.37
2019-03-30T21:55:56.260Z,7.87
2019-03-30T21:58:28.624Z,9.03
2019-03-30T22:01:00.029Z,8.27
2019-03-30T22:03:29.285Z,9.90
2019-03-30T22:08:43.361Z,10.23
2019-03-30T22:11:18.844Z,9.40
2019-03-30T22:13:49.197Z,9.90
2019-03-30T22:16:19.521Z,10.10
2019-03-30T22:18:50.601Z,7.40
2019-03-30T22:21:26.058Z,8.57
2019-03-30T22:23:59.435Z,8.67
2019-03-30T22:26:29.754Z,8.63
2019-03-30T22:29:00.087Z,7.73
2019-03-30T22:31:30.407Z,8.87
2019-03-30T22:34:00.731Z,10.90
2019-03-30T22:36:31.444Z,12.73
2019-03-30T22:39:01.768Z,10.93
2019-03-30T22:41:32.088Z,12.03
2019-03-30T22:44:02.432Z,10.13
2019-03-30T22:46:32.753Z,10.43
2019-03-30T22:49:03.073Z,11.73
2019-03-30T22:51:34.189Z,10.60
2019-03-30T22:54:04.521Z,10.17
2019-03-30T22:56:34.832Z,9.83
2019-03-30T22:59:05.422Z,9.27
2019-03-30T23:01:36.803Z,8.70
2019-03-30T23:04:09.144Z,9.83
2019-03-30T23:06:39.498Z,9.87
2019-03-30T23:09:11.472Z,7.47
2019-03-30T23:11:41.172Z,8.67
2019-03-30T23:14:12.306Z,8.53
2019-03-30T23:16:42.645Z,9.40
2019-03-30T23:19:12.972Z,11.33
2019-03-30T23:21:43.357Z,10.80
2019-03-30T23:24:14.769Z,11.43
2019-03-30T23:26:45.048Z,9.80
2019-03-30T23:29:19.514Z,8.53
2019-03-30T23:31:49.852Z,10.17
2019-03-30T23:34:21.991Z,9.00
2019-03-30T23:36:52.343Z,8.03
2019-03-30T23:39:23.419Z,7.83
2019-03-30T23:41:53.744Z,7.90
2019-03-30T23:44:24.086Z,7.40
2019-03-30T23:46:56.446Z,9.00
2019-03-30T23:49:26.762Z,8.13
2019-03-30T23:51:57.107Z,8.90
2019-03-30T23:54:46.530Z,7.53
2019-03-30T23:57:17.647Z,9.70
2019-03-30T23:59:47.960Z,9.60
